sensor_id;sensor_type;location;lat;lon;timestamp;P1;durP1;ratioP1;P2;durP2;ratioP2
75614;SDS011;64199;48.578;-4.520;2023-09-19T00:00:45;1.25;;;0.57;;
75614;SDS011;64199;48.578;-4.520;2023-09-19T00:03:15;2.15;;;0.70;;
75614;SDS011;64199;48.578;-4.520;2023-09-19T00:05:41;0.80;;;0.60;;
75614;SDS011;64199;48.578;-4.520;2023-09-19T00:08:10;1.70;;;0.80;;
75614;SDS011;64199;48.578;-4.520;2023-09-19T00:10:38;0.88;;;0.43;;
75614;SDS011;64199;48.578;-4.520;2023-09-19T00:13:06;1.17;;;0.50;;
75614;SDS011;64199;48.578;-4.520;2023-09-19T00:15:36;1.30;;;0.50;;
75614;SDS011;64199;48.578;-4.520;2023-09-19T00:18:04;0.98;;;0.65;;
75614;SDS011;64199;48.578;-4.520;2023-09-19T00:20:36;1.50;;;0.50;;
75614;SDS011;64199;48.578;-4.520;2023-09-19T00:23:03;1.52;;;0.68;;
75614;SDS011;64199;48.578;-4.520;2023-09-19T00:25:36;1.05;;;0.50;;
75614;SDS011;64199;48.578;-4.520;2023-09-19T00:28:03;1.70;;;0.70;;
75614;SDS011;64199;48.578;-4.520;2023-09-19T00:30:32;1.08;;;0.45;;
75614;SDS011;64199;48.578;-4.520;2023-09-19T00:32:58;0.85;;;0.60;;
75614;SDS011;64199;48.578;-4.520;2023-09-19T00:35:25;1.70;;;0.70;;
75614;SDS011;64199;48.578;-4.520;2023-09-19T00:37:52;0.75;;;0.73;;
75614;SDS011;64199;48.578;-4.520;2023-09-19T00:40:19;1.33;;;0.65;;
75614;SDS011;64199;48.578;-4.520;2023-09-19T00:42:47;0.88;;;0.65;;
75614;SDS011;64199;48.578;-4.520;2023-09-19T00:45:15;1.17;;;0.60;;
75614;SDS011;64199;48.578;-4.520;2023-09-19T00:47:47;1.15;;;0.63;;
75614;SDS011;64199;48.578;-4.520;2023-09-19T00:50:15;1.77;;;0.52;;
75614;SDS011;64199;48.578;-4.520;2023-09-19T00:52:48;1.40;;;0.50;;
75614;SDS011;64199;48.578;-4.520;2023-09-19T00:55:18;1.38;;;0.60;;
75614;SDS011;64199;48.578;-4.520;2023-09-19T00:57:45;1.15;;;0.60;;
75614;SDS011;64199;48.578;-4.520;2023-09-19T01:00:16;1.40;;;0.50;;
75614;SDS011;64199;48.578;-4.520;2023-09-19T01:02:45;1.35;;;0.40;;
75614;SDS011;64199;48.578;-4.520;2023-09-19T01:05:12;0.90;;;0.50;;
75614;SDS011;64199;48.578;-4.520;2023-09-19T01:07:41;2.22;;;0.85;;
75614;SDS011;64199;48.578;-4.520;2023-09-19T01:10:14;0.63;;;0.40;;
75614;SDS011;64199;48.578;-4.520;2023-09-19T01:18:15;1.67;;;0.50;;
75614;SDS011;64199;48.578;-4.520;2023-09-19T01:31:23;2.45;;;0.43;;
75614;SDS011;64199;48.578;-4.520;2023-09-19T01:33:54;1.10;;;0.50;;
75614;SDS011;64199;48.578;-4.520;2023-09-19T01:36:33;1.02;;;0.60;;
75614;SDS011;64199;48.578;-4.520;2023-09-19T01:39:02;1.42;;;0.60;;
75614;SDS011;64199;48.578;-4.520;2023-09-19T01:44:09;0.73;;;0.45;;
75614;SDS011;64199;48.578;-4.520;2023-09-19T01:46:42;1.42;;;0.60;;
75614;SDS011;64199;48.578;-4.520;2023-09-19T01:54:56;0.70;;;0.50;;
75614;SDS011;64199;48.578;-4.520;2023-09-19T02:00:23;1.25;;;0.70;;
75614;SDS011;64199;48.578;-4.520;2023-09-19T02:02:51;1.73;;;0.65;;
75614;SDS011;64199;48.578;-4.520;2023-09-19T02:05:24;1.92;;;0.50;;
75614;SDS011;64199;48.578;-4.520;2023-09-19T02:07:55;2.17;;;0.60;;
75614;SDS011;64199;48.578;-4.520;2023-09-19T02:10:22;0.40;;;0.40;;
75614;SDS011;64199;48.578;-4.520;2023-09-19T02:12:50;0.80;;;0.47;;
75614;SDS011;64199;48.578;-4.520;2023-09-19T02:15:16;0.68;;;0.45;;
75614;SDS011;64199;48.578;-4.520;2023-09-19T02:17:43;1.48;;;0.57;;
75614;SDS011;64199;48.578;-4.520;2023-09-19T02:20:10;2.10;;;0.98;;
75614;SDS011;64199;48.578;-4.520;2023-09-19T02:22:41;1.27;;;0.57;;
75614;SDS011;64199;48.578;-4.520;2023-09-19T02:25:07;0.68;;;0.50;;
75614;SDS011;64199;48.578;-4.520;2023-09-19T02:27:34;0.50;;;0.50;;
75614;SDS011;64199;48.578;-4.520;2023-09-19T02:30:01;1.33;;;0.60;;
75614;SDS011;64199;48.578;-4.520;2023-09-19T02:32:28;1.58;;;0.68;;
75614;SDS011;64199;48.578;-4.520;2023-09-19T02:34:55;0.90;;;0.60;;
75614;SDS011;64199;48.578;-4.520;2023-09-19T02:37:23;0.95;;;0.45;;
75614;SDS011;64199;48.578;-4.520;2023-09-19T02:39:49;0.88;;;0.50;;
75614;SDS011;64199;48.578;-4.520;2023-09-19T02:42:14;1.35;;;0.50;;
75614;SDS011;64199;48.578;-4.520;2023-09-19T02:44:40;0.70;;;0.50;;
75614;SDS011;64199;48.578;-4.520;2023-09-19T02:47:06;1.10;;;0.68;;
75614;SDS011;64199;48.578;-4.520;2023-09-19T02:49:32;3.08;;;0.50;;
75614;SDS011;64199;48.578;-4.520;2023-09-19T02:51:58;1.08;;;0.50;;
75614;SDS011;64199;48.578;-4.520;2023-09-19T02:54:24;2.65;;;0.50;;
75614;SDS011;64199;48.578;-4.520;2023-09-19T02:56:50;1.50;;;0.60;;
75614;SDS011;64199;48.578;-4.520;2023-09-19T02:59:16;0.88;;;0.50;;
75614;SDS011;64199;48.578;-4.520;2023-09-19T03:01:44;1.98;;;0.65;;
75614;SDS011;64199;48.578;-4.520;2023-09-19T03:04:13;0.47;;;0.40;;
75614;SDS011;64199;48.578;-4.520;2023-09-19T03:06:42;0.73;;;0.50;;
75614;SDS011;64199;48.578;-4.520;2023-09-19T03:09:09;1.85;;;0.57;;
75614;SDS011;64199;48.578;-4.520;2023-09-19T03:11:36;2.35;;;0.52;;
75614;SDS011;64199;48.578;-4.520;2023-09-19T03:14:02;0.90;;;0.55;;
75614;SDS011;64199;48.578;-4.520;2023-09-19T03:16:29;1.33;;;0.60;;
75614;SDS011;64199;48.578;-4.520;2023-09-19T03:18:55;3.67;;;0.60;;
75614;SDS011;64199;48.578;-4.520;2023-09-19T03:21:21;3.08;;;0.70;;
75614;SDS011;64199;48.578;-4.520;2023-09-19T03:23:48;0.77;;;0.60;;
75614;SDS011;64199;48.578;-4.520;2023-09-19T03:26:13;0.80;;;0.52;;
75614;SDS011;64199;48.578;-4.520;2023-09-19T03:28:41;0.90;;;0.47;;
75614;SDS011;64199;48.578;-4.520;2023-09-19T03:31:09;2.47;;;0.50;;
75614;SDS011;64199;48.578;-4.520;2023-09-19T03:33:36;1.60;;;0.57;;
75614;SDS011;64199;48.578;-4.520;2023-09-19T03:36:02;0.82;;;0.50;;
75614;SDS011;64199;48.578;-4.520;2023-09-19T03:38:33;1.13;;;0.50;;
75614;SDS011;64199;48.578;-4.520;2023-09-19T03:40:59;1.90;;;0.90;;
75614;SDS011;64199;48.578;-4.520;2023-09-19T03:43:26;3.35;;;0.50;;
75614;SDS011;64199;48.578;-4.520;2023-09-19T03:45:54;3.30;;;0.73;;
75614;SDS011;64199;48.578;-4.520;2023-09-19T03:48:20;1.00;;;0.60;;
75614;SDS011;64199;48.578;-4.520;2023-09-19T03:50:48;0.82;;;0.50;;
75614;SDS011;64199;48.578;-4.520;2023-09-19T03:53:14;0.85;;;0.65;;
75614;SDS011;64199;48.578;-4.520;2023-09-19T03:55:40;1.45;;;0.40;;
75614;SDS011;64199;48.578;-4.520;2023-09-19T03:58:06;0.93;;;0.60;;
75614;SDS011;64199;48.578;-4.520;2023-09-19T04:00:33;2.10;;;0.73;;
75614;SDS011;64199;48.578;-4.520;2023-09-19T04:02:59;1.05;;;0.57;;
75614;SDS011;64199;48.578;-4.520;2023-09-19T04:05:30;1.50;;;0.60;;
75614;SDS011;64199;48.578;-4.520;2023-09-19T04:07:57;1.05;;;0.60;;
75614;SDS011;64199;48.578;-4.520;2023-09-19T04:10:23;2.03;;;1.05;;
75614;SDS011;64199;48.578;-4.520;2023-09-19T04:12:55;3.42;;;0.80;;
75614;SDS011;64199;48.578;-4.520;2023-09-19T04:15:21;8.63;;;0.90;;
75614;SDS011;64199;48.578;-4.520;2023-09-19T04:17:49;0.98;;;0.45;;
75614;SDS011;64199;48.578;-4.520;2023-09-19T04:20:16;0.68;;;0.47;;
75614;SDS011;64199;48.578;-4.520;2023-09-19T04:22:45;1.13;;;0.52;;
75614;SDS011;64199;48.578;-4.520;2023-09-19T04:25:12;1.67;;;0.70;;
75614;SDS011;64199;48.578;-4.520;2023-09-19T04:27:38;4.82;;;1.25;;
75614;SDS011;64199;48.578;-4.520;2023-09-19T04:30:04;1.88;;;0.60;;
75614;SDS011;64199;48.578;-4.520;2023-09-19T04:32:36;1.85;;;0.73;;
75614;SDS011;64199;48.578;-4.520;2023-09-19T04:35:09;2.55;;;0.60;;
75614;SDS011;64199;48.578;-4.520;2023-09-19T04:37:37;1.10;;;0.70;;
75614;SDS011;64199;48.578;-4.520;2023-09-19T04:40:05;2.53;;;0.43;;
75614;SDS011;64199;48.578;-4.520;2023-09-19T04:42:37;1.00;;;0.50;;
75614;SDS011;64199;48.578;-4.520;2023-09-19T04:45:04;0.57;;;0.55;;
75614;SDS011;64199;48.578;-4.520;2023-09-19T04:47:30;2.17;;;0.70;;
75614;SDS011;64199;48.578;-4.520;2023-09-19T04:49:57;0.93;;;0.60;;
75614;SDS011;64199;48.578;-4.520;2023-09-19T04:52:24;0.75;;;0.55;;
75614;SDS011;64199;48.578;-4.520;2023-09-19T04:54:50;1.13;;;0.65;;
75614;SDS011;64199;48.578;-4.520;2023-09-19T04:57:16;1.25;;;0.50;;
75614;SDS011;64199;48.578;-4.520;2023-09-19T04:59:42;0.70;;;0.43;;
75614;SDS011;64199;48.578;-4.520;2023-09-19T05:02:08;0.50;;;0.35;;
75614;SDS011;64199;48.578;-4.520;2023-09-19T05:04:34;0.80;;;0.60;;
75614;SDS011;64199;48.578;-4.520;2023-09-19T05:07:00;1.13;;;0.60;;
75614;SDS011;64199;48.578;-4.520;2023-09-19T05:09:28;0.52;;;0.40;;
75614;SDS011;64199;48.578;-4.520;2023-09-19T05:11:55;1.45;;;0.60;;
75614;SDS011;64199;48.578;-4.520;2023-09-19T05:14:22;1.08;;;0.68;;
75614;SDS011;64199;48.578;-4.520;2023-09-19T05:16:48;1.48;;;0.50;;
75614;SDS011;64199;48.578;-4.520;2023-09-19T05:19:14;1.40;;;0.77;;
75614;SDS011;64199;48.578;-4.520;2023-09-19T05:21:40;0.60;;;0.32;;
75614;SDS011;64199;48.578;-4.520;2023-09-19T05:24:06;2.00;;;0.68;;
75614;SDS011;64199;48.578;-4.520;2023-09-19T05:26:32;1.02;;;0.50;;
75614;SDS011;64199;48.578;-4.520;2023-09-19T05:28:58;1.50;;;0.70;;
75614;SDS011;64199;48.578;-4.520;2023-09-19T05:31:24;1.48;;;0.70;;
75614;SDS011;64199;48.578;-4.520;2023-09-19T05:33:50;1.38;;;0.60;;
75614;SDS011;64199;48.578;-4.520;2023-09-19T05:36:17;2.13;;;0.50;;
75614;SDS011;64199;48.578;-4.520;2023-09-19T05:38:43;0.93;;;0.70;;
75614;SDS011;64199;48.578;-4.520;2023-09-19T05:41:09;1.20;;;0.70;;
75614;SDS011;64199;48.578;-4.520;2023-09-19T05:43:39;0.45;;;0.40;;
75614;SDS011;64199;48.578;-4.520;2023-09-19T05:46:06;1.27;;;0.50;;
75614;SDS011;64199;48.578;-4.520;2023-09-19T05:48:33;2.22;;;0.80;;
75614;SDS011;64199;48.578;-4.520;2023-09-19T05:50:59;1.80;;;0.50;;
75614;SDS011;64199;48.578;-4.520;2023-09-19T05:53:26;0.98;;;0.60;;
75614;SDS011;64199;48.578;-4.520;2023-09-19T05:55:52;1.25;;;0.60;;
75614;SDS011;64199;48.578;-4.520;2023-09-19T05:58:20;1.52;;;0.65;;
75614;SDS011;64199;48.578;-4.520;2023-09-19T06:00:46;0.77;;;0.47;;
75614;SDS011;64199;48.578;-4.520;2023-09-19T06:03:14;0.90;;;0.63;;
75614;SDS011;64199;48.578;-4.520;2023-09-19T06:05:40;1.50;;;0.65;;
75614;SDS011;64199;48.578;-4.520;2023-09-19T06:08:08;1.30;;;0.60;;
75614;SDS011;64199;48.578;-4.520;2023-09-19T06:10:34;1.25;;;0.63;;
75614;SDS011;64199;48.578;-4.520;2023-09-19T06:13:03;0.98;;;0.40;;
75614;SDS011;64199;48.578;-4.520;2023-09-19T06:15:31;1.95;;;0.75;;
75614;SDS011;64199;48.578;-4.520;2023-09-19T06:17:58;1.80;;;0.70;;
75614;SDS011;64199;48.578;-4.520;2023-09-19T06:20:27;0.68;;;0.60;;
75614;SDS011;64199;48.578;-4.520;2023-09-19T06:22:54;1.45;;;0.50;;
75614;SDS011;64199;48.578;-4.520;2023-09-19T06:25:20;0.63;;;0.50;;
75614;SDS011;64199;48.578;-4.520;2023-09-19T06:30:20;1.23;;;0.60;;
75614;SDS011;64199;48.578;-4.520;2023-09-19T06:32:48;2.25;;;0.75;;
75614;SDS011;64199;48.578;-4.520;2023-09-19T06:35:14;3.28;;;0.60;;
75614;SDS011;64199;48.578;-4.520;2023-09-19T06:37:41;1.38;;;0.65;;
75614;SDS011;64199;48.578;-4.520;2023-09-19T06:40:09;1.07;;;0.57;;
75614;SDS011;64199;48.578;-4.520;2023-09-19T06:42:42;1.65;;;0.77;;
75614;SDS011;64199;48.578;-4.520;2023-09-19T06:45:13;2.15;;;0.75;;
75614;SDS011;64199;48.578;-4.520;2023-09-19T06:47:45;2.78;;;0.68;;
75614;SDS011;64199;48.578;-4.520;2023-09-19T06:50:18;1.52;;;0.68;;
75614;SDS011;64199;48.578;-4.520;2023-09-19T06:52:47;1.05;;;0.60;;
75614;SDS011;64199;48.578;-4.520;2023-09-19T06:55:18;1.20;;;0.73;;
75614;SDS011;64199;48.578;-4.520;2023-09-19T06:57:45;1.25;;;0.50;;
75614;SDS011;64199;48.578;-4.520;2023-09-19T07:00:12;0.90;;;0.45;;
75614;SDS011;64199;48.578;-4.520;2023-09-19T07:02:45;0.68;;;0.50;;
75614;SDS011;64199;48.578;-4.520;2023-09-19T07:05:19;1.35;;;0.65;;
75614;SDS011;64199;48.578;-4.520;2023-09-19T07:07:46;1.10;;;0.60;;
75614;SDS011;64199;48.578;-4.520;2023-09-19T07:10:12;0.70;;;0.50;;
75614;SDS011;64199;48.578;-4.520;2023-09-19T07:12:39;1.40;;;0.60;;
75614;SDS011;64199;48.578;-4.520;2023-09-19T07:15:07;2.25;;;0.98;;
75614;SDS011;64199;48.578;-4.520;2023-09-19T07:17:33;0.80;;;0.55;;
75614;SDS011;64199;48.578;-4.520;2023-09-19T07:19:59;2.22;;;0.68;;
75614;SDS011;64199;48.578;-4.520;2023-09-19T07:22:26;0.50;;;0.50;;
75614;SDS011;64199;48.578;-4.520;2023-09-19T07:24:52;1.52;;;0.80;;
75614;SDS011;64199;48.578;-4.520;2023-09-19T07:27:18;1.85;;;0.80;;
75614;SDS011;64199;48.578;-4.520;2023-09-19T07:29:43;1.33;;;0.60;;
75614;SDS011;64199;48.578;-4.520;2023-09-19T07:32:10;2.47;;;0.73;;
75614;SDS011;64199;48.578;-4.520;2023-09-19T07:34:37;2.58;;;0.82;;
75614;SDS011;64199;48.578;-4.520;2023-09-19T07:37:05;1.13;;;0.88;;
75614;SDS011;64199;48.578;-4.520;2023-09-19T07:39:31;2.22;;;0.77;;
75614;SDS011;64199;48.578;-4.520;2023-09-19T07:41:58;4.10;;;0.98;;
75614;SDS011;64199;48.578;-4.520;2023-09-19T07:44:24;1.08;;;0.68;;
75614;SDS011;64199;48.578;-4.520;2023-09-19T07:46:50;1.85;;;0.73;;
75614;SDS011;64199;48.578;-4.520;2023-09-19T07:49:17;1.65;;;0.93;;
75614;SDS011;64199;48.578;-4.520;2023-09-19T07:51:44;1.88;;;0.70;;
75614;SDS011;64199;48.578;-4.520;2023-09-19T07:54:12;1.48;;;0.90;;
75614;SDS011;64199;48.578;-4.520;2023-09-19T07:56:39;1.23;;;0.52;;
75614;SDS011;64199;48.578;-4.520;2023-09-19T07:59:06;2.50;;;0.73;;
75614;SDS011;64199;48.578;-4.520;2023-09-19T08:01:31;2.88;;;0.95;;
75614;SDS011;64199;48.578;-4.520;2023-09-19T08:04:01;1.48;;;0.50;;
75614;SDS011;64199;48.578;-4.520;2023-09-19T08:06:30;1.70;;;0.75;;
75614;SDS011;64199;48.578;-4.520;2023-09-19T08:08:56;1.83;;;0.68;;
75614;SDS011;64199;48.578;-4.520;2023-09-19T08:11:32;1.58;;;0.82;;
75614;SDS011;64199;48.578;-4.520;2023-09-19T08:13:58;2.28;;;0.73;;
75614;SDS011;64199;48.578;-4.520;2023-09-19T08:16:25;2.25;;;0.70;;
75614;SDS011;64199;48.578;-4.520;2023-09-19T08:18:51;2.13;;;0.73;;
75614;SDS011;64199;48.578;-4.520;2023-09-19T08:21:20;1.05;;;0.50;;
75614;SDS011;64199;48.578;-4.520;2023-09-19T08:23:47;1.33;;;0.60;;
75614;SDS011;64199;48.578;-4.520;2023-09-19T08:26:13;1.60;;;0.73;;
75614;SDS011;64199;48.578;-4.520;2023-09-19T08:28:39;1.52;;;0.90;;
75614;SDS011;64199;48.578;-4.520;2023-09-19T08:31:09;2.33;;;0.70;;
75614;SDS011;64199;48.578;-4.520;2023-09-19T08:33:35;2.22;;;0.70;;
75614;SDS011;64199;48.578;-4.520;2023-09-19T08:36:03;1.92;;;0.90;;
75614;SDS011;64199;48.578;-4.520;2023-09-19T08:38:33;1.75;;;1.00;;
75614;SDS011;64199;48.578;-4.520;2023-09-19T08:41:00;0.68;;;0.60;;
75614;SDS011;64199;48.578;-4.520;2023-09-19T08:43:30;1.55;;;0.90;;
75614;SDS011;64199;48.578;-4.520;2023-09-19T08:49:04;3.05;;;0.90;;
75614;SDS011;64199;48.578;-4.520;2023-09-19T08:51:33;2.40;;;1.10;;
75614;SDS011;64199;48.578;-4.520;2023-09-19T08:54:21;5.57;;;1.10;;
75614;SDS011;64199;48.578;-4.520;2023-09-19T08:56:51;2.40;;;0.93;;
75614;SDS011;64199;48.578;-4.520;2023-09-19T08:59:22;2.97;;;0.85;;
75614;SDS011;64199;48.578;-4.520;2023-09-19T09:01:50;1.95;;;1.10;;
75614;SDS011;64199;48.578;-4.520;2023-09-19T09:04:19;1.30;;;0.85;;
75614;SDS011;64199;48.578;-4.520;2023-09-19T09:06:45;1.65;;;1.00;;
75614;SDS011;64199;48.578;-4.520;2023-09-19T09:09:18;6.20;;;1.38;;
75614;SDS011;64199;48.578;-4.520;2023-09-19T09:11:45;3.85;;;1.30;;
75614;SDS011;64199;48.578;-4.520;2023-09-19T09:14:18;3.55;;;1.30;;
75614;SDS011;64199;48.578;-4.520;2023-09-19T09:16:46;3.67;;;1.13;;
75614;SDS011;64199;48.578;-4.520;2023-09-19T09:19:14;2.70;;;1.17;;
75614;SDS011;64199;48.578;-4.520;2023-09-19T09:21:45;3.95;;;1.10;;
75614;SDS011;64199;48.578;-4.520;2023-09-19T09:27:23;2.75;;;1.20;;
75614;SDS011;64199;48.578;-4.520;2023-09-19T09:29:50;3.22;;;1.08;;
75614;SDS011;64199;48.578;-4.520;2023-09-19T09:32:18;3.97;;;1.25;;
75614;SDS011;64199;48.578;-4.520;2023-09-19T09:34:51;3.13;;;1.40;;
75614;SDS011;64199;48.578;-4.520;2023-09-19T09:37:20;2.80;;;1.25;;
75614;SDS011;64199;48.578;-4.520;2023-09-19T09:39:59;2.47;;;1.20;;
75614;SDS011;64199;48.578;-4.520;2023-09-19T09:42:46;1.25;;;1.00;;
75614;SDS011;64199;48.578;-4.520;2023-09-19T09:45:23;3.00;;;1.45;;
75614;SDS011;64199;48.578;-4.520;2023-09-19T09:47:59;1.73;;;1.10;;
75614;SDS011;64199;48.578;-4.520;2023-09-19T09:50:29;2.20;;;1.30;;
75614;SDS011;64199;48.578;-4.520;2023-09-19T09:53:25;4.90;;;1.27;;
75614;SDS011;64199;48.578;-4.520;2023-09-19T09:58:34;3.63;;;1.20;;
75614;SDS011;64199;48.578;-4.520;2023-09-19T10:01:02;2.90;;;1.30;;
75614;SDS011;64199;48.578;-4.520;2023-09-19T10:03:36;3.00;;;1.35;;
75614;SDS011;64199;48.578;-4.520;2023-09-19T10:06:09;3.85;;;1.30;;
75614;SDS011;64199;48.578;-4.520;2023-09-19T10:09:06;2.53;;;1.30;;
75614;SDS011;64199;48.578;-4.520;2023-09-19T10:12:06;4.50;;;1.50;;
75614;SDS011;64199;48.578;-4.520;2023-09-19T10:14:35;3.17;;;1.50;;
75614;SDS011;64199;48.578;-4.520;2023-09-19T10:17:06;3.08;;;1.50;;
75614;SDS011;64199;48.578;-4.520;2023-09-19T10:22:12;3.15;;;1.17;;
75614;SDS011;64199;48.578;-4.520;2023-09-19T10:24:46;2.92;;;1.27;;
75614;SDS011;64199;48.578;-4.520;2023-09-19T10:27:17;2.10;;;1.00;;
75614;SDS011;64199;48.578;-4.520;2023-09-19T10:29:45;2.50;;;1.30;;
75614;SDS011;64199;48.578;-4.520;2023-09-19T10:32:16;3.20;;;1.27;;
75614;SDS011;64199;48.578;-4.520;2023-09-19T10:34:49;4.22;;;1.48;;
75614;SDS011;64199;48.578;-4.520;2023-09-19T10:37:16;5.18;;;1.20;;
75614;SDS011;64199;48.578;-4.520;2023-09-19T10:39:46;1.92;;;1.10;;
75614;SDS011;64199;48.578;-4.520;2023-09-19T10:42:18;4.22;;;1.42;;
75614;SDS011;64199;48.578;-4.520;2023-09-19T10:44:50;3.17;;;1.50;;
75614;SDS011;64199;48.578;-4.520;2023-09-19T10:47:20;4.35;;;1.38;;
75614;SDS011;64199;48.578;-4.520;2023-09-19T10:49:49;4.50;;;1.88;;
75614;SDS011;64199;48.578;-4.520;2023-09-19T10:52:16;3.88;;;1.50;;
75614;SDS011;64199;48.578;-4.520;2023-09-19T10:54:46;3.85;;;1.40;;
75614;SDS011;64199;48.578;-4.520;2023-09-19T10:57:20;4.70;;;1.35;;
75614;SDS011;64199;48.578;-4.520;2023-09-19T11:00:10;2.85;;;1.40;;
75614;SDS011;64199;48.578;-4.520;2023-09-19T11:05:36;3.17;;;1.65;;
75614;SDS011;64199;48.578;-4.520;2023-09-19T11:08:09;3.72;;;1.55;;
75614;SDS011;64199;48.578;-4.520;2023-09-19T11:13:26;4.60;;;1.85;;
75614;SDS011;64199;48.578;-4.520;2023-09-19T11:27:08;3.13;;;1.63;;
75614;SDS011;64199;48.578;-4.520;2023-09-19T11:29:39;3.05;;;1.48;;
75614;SDS011;64199;48.578;-4.520;2023-09-19T11:32:05;3.08;;;1.65;;
75614;SDS011;64199;48.578;-4.520;2023-09-19T11:34:42;2.97;;;1.65;;
75614;SDS011;64199;48.578;-4.520;2023-09-19T11:48:23;2.83;;;1.63;;
75614;SDS011;64199;48.578;-4.520;2023-09-19T11:50:52;3.45;;;1.50;;
75614;SDS011;64199;48.578;-4.520;2023-09-19T11:53:45;3.72;;;1.80;;
75614;SDS011;64199;48.578;-4.520;2023-09-19T11:56:18;3.35;;;1.70;;
75614;SDS011;64199;48.578;-4.520;2023-09-19T11:58:48;4.03;;;1.80;;
75614;SDS011;64199;48.578;-4.520;2023-09-19T12:01:22;4.95;;;1.80;;
75614;SDS011;64199;48.578;-4.520;2023-09-19T12:03:56;4.70;;;2.13;;
75614;SDS011;64199;48.578;-4.520;2023-09-19T12:06:38;2.25;;;1.63;;
75614;SDS011;64199;48.578;-4.520;2023-09-19T12:09:12;4.13;;;1.80;;
75614;SDS011;64199;48.578;-4.520;2023-09-19T12:11:42;4.35;;;1.77;;
75614;SDS011;64199;48.578;-4.520;2023-09-19T12:14:11;5.18;;;1.55;;
75614;SDS011;64199;48.578;-4.520;2023-09-19T12:16:54;5.20;;;1.60;;
75614;SDS011;64199;48.578;-4.520;2023-09-19T12:19:21;4.40;;;1.98;;
75614;SDS011;64199;48.578;-4.520;2023-09-19T12:21:55;3.13;;;1.63;;
75614;SDS011;64199;48.578;-4.520;2023-09-19T12:24:29;6.45;;;1.90;;
75614;SDS011;64199;48.578;-4.520;2023-09-19T12:27:03;3.08;;;1.77;;
75614;SDS011;64199;48.578;-4.520;2023-09-19T12:29:31;6.03;;;1.73;;
75614;SDS011;64199;48.578;-4.520;2023-09-19T12:32:06;5.00;;;1.98;;
75614;SDS011;64199;48.578;-4.520;2023-09-19T12:34:33;5.70;;;1.92;;
75614;SDS011;64199;48.578;-4.520;2023-09-19T12:37:08;6.40;;;2.15;;
75614;SDS011;64199;48.578;-4.520;2023-09-19T12:39:48;4.63;;;1.75;;
75614;SDS011;64199;48.578;-4.520;2023-09-19T12:42:24;4.80;;;1.95;;
75614;SDS011;64199;48.578;-4.520;2023-09-19T12:44:57;3.30;;;1.67;;
75614;SDS011;64199;48.578;-4.520;2023-09-19T12:47:26;4.53;;;2.47;;
75614;SDS011;64199;48.578;-4.520;2023-09-19T12:50:11;6.95;;;1.98;;
75614;SDS011;64199;48.578;-4.520;2023-09-19T12:52:51;15.73;;;2.63;;
75614;SDS011;64199;48.578;-4.520;2023-09-19T12:55:27;5.80;;;2.00;;
75614;SDS011;64199;48.578;-4.520;2023-09-19T12:57:58;7.25;;;2.22;;
75614;SDS011;64199;48.578;-4.520;2023-09-19T13:00:39;9.27;;;1.70;;
75614;SDS011;64199;48.578;-4.520;2023-09-19T13:03:15;7.13;;;1.90;;
75614;SDS011;64199;48.578;-4.520;2023-09-19T13:05:57;5.65;;;1.63;;
75614;SDS011;64199;48.578;-4.520;2023-09-19T13:11:15;6.38;;;1.83;;
75614;SDS011;64199;48.578;-4.520;2023-09-19T13:13:47;7.95;;;1.90;;
75614;SDS011;64199;48.578;-4.520;2023-09-19T13:16:20;14.13;;;2.20;;
75614;SDS011;64199;48.578;-4.520;2023-09-19T13:18:49;7.18;;;1.98;;
75614;SDS011;64199;48.578;-4.520;2023-09-19T13:21:20;7.78;;;1.95;;
75614;SDS011;64199;48.578;-4.520;2023-09-19T13:24:18;5.82;;;2.13;;
75614;SDS011;64199;48.578;-4.520;2023-09-19T13:26:50;7.13;;;1.95;;
75614;SDS011;64199;48.578;-4.520;2023-09-19T13:29:16;6.00;;;1.92;;
75614;SDS011;64199;48.578;-4.520;2023-09-19T13:31:47;6.22;;;2.15;;
75614;SDS011;64199;48.578;-4.520;2023-09-19T13:34:13;7.72;;;2.05;;
75614;SDS011;64199;48.578;-4.520;2023-09-19T13:36:43;3.50;;;2.00;;
75614;SDS011;64199;48.578;-4.520;2023-09-19T13:39:09;6.05;;;2.25;;
75614;SDS011;64199;48.578;-4.520;2023-09-19T13:41:35;3.63;;;1.98;;
75614;SDS011;64199;48.578;-4.520;2023-09-19T13:44:04;6.25;;;1.70;;
75614;SDS011;64199;48.578;-4.520;2023-09-19T13:46:31;9.18;;;1.80;;
75614;SDS011;64199;48.578;-4.520;2023-09-19T13:49:00;3.97;;;1.77;;
75614;SDS011;64199;48.578;-4.520;2023-09-19T13:53:58;3.95;;;1.80;;
75614;SDS011;64199;48.578;-4.520;2023-09-19T13:56:27;4.78;;;1.88;;
75614;SDS011;64199;48.578;-4.520;2023-09-19T13:58:53;4.10;;;2.13;;
75614;SDS011;64199;48.578;-4.520;2023-09-19T14:01:19;4.95;;;2.08;;
75614;SDS011;64199;48.578;-4.520;2023-09-19T14:03:46;3.88;;;1.90;;
75614;SDS011;64199;48.578;-4.520;2023-09-19T14:06:14;2.45;;;1.70;;
75614;SDS011;64199;48.578;-4.520;2023-09-19T14:08:41;5.10;;;2.17;;
75614;SDS011;64199;48.578;-4.520;2023-09-19T14:11:10;3.28;;;1.70;;
75614;SDS011;64199;48.578;-4.520;2023-09-19T14:13:39;4.13;;;2.00;;
75614;SDS011;64199;48.578;-4.520;2023-09-19T14:16:12;3.35;;;2.00;;
75614;SDS011;64199;48.578;-4.520;2023-09-19T14:18:38;4.28;;;2.08;;
75614;SDS011;64199;48.578;-4.520;2023-09-19T14:21:05;4.20;;;1.95;;
75614;SDS011;64199;48.578;-4.520;2023-09-19T14:23:37;3.80;;;1.83;;
75614;SDS011;64199;48.578;-4.520;2023-09-19T14:26:04;2.97;;;2.00;;
75614;SDS011;64199;48.578;-4.520;2023-09-19T14:28:33;5.15;;;2.15;;
75614;SDS011;64199;48.578;-4.520;2023-09-19T14:31:07;2.75;;;1.60;;
75614;SDS011;64199;48.578;-4.520;2023-09-19T14:33:34;3.13;;;1.83;;
75614;SDS011;64199;48.578;-4.520;2023-09-19T14:36:08;4.00;;;1.73;;
75614;SDS011;64199;48.578;-4.520;2023-09-19T14:38:35;2.63;;;1.63;;
75614;SDS011;64199;48.578;-4.520;2023-09-19T14:41:03;2.65;;;1.75;;
75614;SDS011;64199;48.578;-4.520;2023-09-19T14:43:30;3.97;;;1.90;;
75614;SDS011;64199;48.578;-4.520;2023-09-19T14:45:57;2.85;;;1.67;;
75614;SDS011;64199;48.578;-4.520;2023-09-19T14:48:29;6.05;;;1.95;;
75614;SDS011;64199;48.578;-4.520;2023-09-19T14:50:55;2.72;;;1.60;;
75614;SDS011;64199;48.578;-4.520;2023-09-19T14:53:28;2.33;;;1.60;;
75614;SDS011;64199;48.578;-4.520;2023-09-19T14:55:54;3.00;;;1.92;;
75614;SDS011;64199;48.578;-4.520;2023-09-19T14:58:21;3.97;;;1.67;;
75614;SDS011;64199;48.578;-4.520;2023-09-19T15:00:47;2.00;;;1.52;;
75614;SDS011;64199;48.578;-4.520;2023-09-19T15:03:17;3.25;;;1.83;;
75614;SDS011;64199;48.578;-4.520;2023-09-19T15:05:43;4.60;;;1.98;;
75614;SDS011;64199;48.578;-4.520;2023-09-19T15:08:09;3.10;;;1.67;;
75614;SDS011;64199;48.578;-4.520;2023-09-19T15:10:35;2.95;;;1.70;;
75614;SDS011;64199;48.578;-4.520;2023-09-19T15:13:01;3.33;;;1.73;;
75614;SDS011;64199;48.578;-4.520;2023-09-19T15:15:31;3.85;;;2.08;;
75614;SDS011;64199;48.578;-4.520;2023-09-19T15:17:57;2.58;;;1.48;;
75614;SDS011;64199;48.578;-4.520;2023-09-19T15:20:24;3.45;;;1.70;;
75614;SDS011;64199;48.578;-4.520;2023-09-19T15:22:53;3.78;;;1.83;;
75614;SDS011;64199;48.578;-4.520;2023-09-19T15:25:20;6.07;;;2.05;;
75614;SDS011;64199;48.578;-4.520;2023-09-19T15:27:46;3.78;;;1.63;;
75614;SDS011;64199;48.578;-4.520;2023-09-19T15:30:18;4.20;;;1.65;;
75614;SDS011;64199;48.578;-4.520;2023-09-19T15:32:44;2.90;;;1.67;;
75614;SDS011;64199;48.578;-4.520;2023-09-19T15:35:10;2.67;;;1.67;;
75614;SDS011;64199;48.578;-4.520;2023-09-19T15:37:39;4.43;;;1.52;;
75614;SDS011;64199;48.578;-4.520;2023-09-19T15:40:10;4.38;;;2.10;;
75614;SDS011;64199;48.578;-4.520;2023-09-19T15:42:40;6.38;;;1.98;;
75614;SDS011;64199;48.578;-4.520;2023-09-19T15:45:08;4.53;;;1.60;;
75614;SDS011;64199;48.578;-4.520;2023-09-19T15:47:35;4.37;;;2.10;;
75614;SDS011;64199;48.578;-4.520;2023-09-19T15:50:03;2.80;;;1.60;;
75614;SDS011;64199;48.578;-4.520;2023-09-19T15:52:30;2.78;;;1.60;;
75614;SDS011;64199;48.578;-4.520;2023-09-19T15:54:58;3.38;;;1.58;;
75614;SDS011;64199;48.578;-4.520;2023-09-19T15:57:27;3.20;;;1.90;;
75614;SDS011;64199;48.578;-4.520;2023-09-19T15:59:53;7.78;;;2.13;;